sensor_id;sensor_type;location;lat;lon;timestamp;P1;durP1;ratioP1;P2;durP2;ratioP2
43986;SDS011;29650;47.378;8.300;2023-05-23T00:01:03;8.85;;;5.65;;
43986;SDS011;29650;47.378;8.300;2023-05-23T00:03:36;8.50;;;5.22;;
43986;SDS011;29650;47.378;8.300;2023-05-23T00:06:05;7.63;;;5.28;;
43986;SDS011;29650;47.378;8.300;2023-05-23T00:08:33;10.27;;;6.13;;
43986;SDS011;29650;47.378;8.300;2023-05-23T00:11:00;8.23;;;5.20;;
43986;SDS011;29650;47.378;8.300;2023-05-23T00:13:27;7.03;;;5.63;;
43986;SDS011;29650;47.378;8.300;2023-05-23T00:15:54;7.32;;;5.47;;
43986;SDS011;29650;47.378;8.300;2023-05-23T00:18:25;8.63;;;5.93;;
43986;SDS011;29650;47.378;8.300;2023-05-23T00:20:52;9.05;;;5.43;;
43986;SDS011;29650;47.378;8.300;2023-05-23T00:23:20;9.93;;;5.88;;
43986;SDS011;29650;47.378;8.300;2023-05-23T00:25:53;6.35;;;5.30;;
43986;SDS011;29650;47.378;8.300;2023-05-23T00:28:22;7.38;;;4.82;;
43986;SDS011;29650;47.378;8.300;2023-05-23T00:30:50;8.57;;;5.15;;
43986;SDS011;29650;47.378;8.300;2023-05-23T00:33:17;8.30;;;5.47;;
43986;SDS011;29650;47.378;8.300;2023-05-23T00:35:46;8.23;;;5.60;;
43986;SDS011;29650;47.378;8.300;2023-05-23T00:38:13;9.48;;;5.13;;
43986;SDS011;29650;47.378;8.300;2023-05-23T00:40:50;7.78;;;5.05;;
43986;SDS011;29650;47.378;8.300;2023-05-23T00:43:31;6.82;;;4.78;;
43986;SDS011;29650;47.378;8.300;2023-05-23T00:46:03;8.38;;;4.85;;
43986;SDS011;29650;47.378;8.300;2023-05-23T00:48:40;6.72;;;4.57;;
43986;SDS011;29650;47.378;8.300;2023-05-23T00:53:36;7.00;;;4.68;;
43986;SDS011;29650;47.378;8.300;2023-05-23T00:56:04;7.72;;;5.18;;
43986;SDS011;29650;47.378;8.300;2023-05-23T00:58:32;5.88;;;4.32;;
43986;SDS011;29650;47.378;8.300;2023-05-23T01:00:59;6.95;;;4.80;;
43986;SDS011;29650;47.378;8.300;2023-05-23T01:03:27;7.65;;;4.68;;
43986;SDS011;29650;47.378;8.300;2023-05-23T01:05:54;8.20;;;4.32;;
43986;SDS011;29650;47.378;8.300;2023-05-23T01:08:30;7.07;;;5.25;;
43986;SDS011;29650;47.378;8.300;2023-05-23T01:10:58;7.10;;;4.07;;
43986;SDS011;29650;47.378;8.300;2023-05-23T01:13:37;6.70;;;4.20;;
43986;SDS011;29650;47.378;8.300;2023-05-23T01:16:09;6.07;;;4.03;;
43986;SDS011;29650;47.378;8.300;2023-05-23T01:18:45;8.15;;;4.50;;
43986;SDS011;29650;47.378;8.300;2023-05-23T01:21:34;8.32;;;4.28;;
43986;SDS011;29650;47.378;8.300;2023-05-23T01:24:11;6.20;;;4.40;;
43986;SDS011;29650;47.378;8.300;2023-05-23T01:27:00;5.43;;;3.90;;
43986;SDS011;29650;47.378;8.300;2023-05-23T01:29:53;7.05;;;4.35;;
43986;SDS011;29650;47.378;8.300;2023-05-23T01:32:23;4.90;;;4.15;;
43986;SDS011;29650;47.378;8.300;2023-05-23T01:35:05;8.80;;;4.57;;
43986;SDS011;29650;47.378;8.300;2023-05-23T01:37:33;7.18;;;4.82;;
43986;SDS011;29650;47.378;8.300;2023-05-23T01:40:00;6.28;;;4.85;;
43986;SDS011;29650;47.378;8.300;2023-05-23T01:42:37;7.13;;;4.78;;
43986;SDS011;29650;47.378;8.300;2023-05-23T01:45:07;6.10;;;4.13;;
43986;SDS011;29650;47.378;8.300;2023-05-23T01:47:35;10.23;;;4.82;;
43986;SDS011;29650;47.378;8.300;2023-05-23T01:50:10;8.80;;;5.05;;
43986;SDS011;29650;47.378;8.300;2023-05-23T01:52:38;8.55;;;4.75;;
43986;SDS011;29650;47.378;8.300;2023-05-23T01:55:25;5.53;;;4.30;;
43986;SDS011;29650;47.378;8.300;2023-05-23T01:57:54;6.03;;;4.53;;
43986;SDS011;29650;47.378;8.300;2023-05-23T02:00:25;5.90;;;4.65;;
43986;SDS011;29650;47.378;8.300;2023-05-23T02:02:54;5.75;;;3.85;;
43986;SDS011;29650;47.378;8.300;2023-05-23T02:05:22;8.82;;;4.80;;
43986;SDS011;29650;47.378;8.300;2023-05-23T02:07:49;6.90;;;4.22;;
43986;SDS011;29650;47.378;8.300;2023-05-23T02:10:17;9.85;;;4.47;;
43986;SDS011;29650;47.378;8.300;2023-05-23T02:12:45;5.95;;;4.55;;
43986;SDS011;29650;47.378;8.300;2023-05-23T02:15:12;5.95;;;4.40;;
43986;SDS011;29650;47.378;8.300;2023-05-23T02:17:42;8.53;;;4.50;;
43986;SDS011;29650;47.378;8.300;2023-05-23T02:20:10;19.60;;;4.28;;
43986;SDS011;29650;47.378;8.300;2023-05-23T02:22:38;7.70;;;4.13;;
43986;SDS011;29650;47.378;8.300;2023-05-23T02:25:23;10.27;;;4.13;;
43986;SDS011;29650;47.378;8.300;2023-05-23T02:27:50;6.05;;;4.30;;
43986;SDS011;29650;47.378;8.300;2023-05-23T02:30:17;8.75;;;4.32;;
43986;SDS011;29650;47.378;8.300;2023-05-23T02:32:46;5.38;;;4.30;;
43986;SDS011;29650;47.378;8.300;2023-05-23T02:35:15;5.57;;;4.07;;
43986;SDS011;29650;47.378;8.300;2023-05-23T02:37:42;6.35;;;4.53;;
43986;SDS011;29650;47.378;8.300;2023-05-23T02:40:10;7.70;;;4.47;;
43986;SDS011;29650;47.378;8.300;2023-05-23T02:42:37;6.75;;;4.28;;
43986;SDS011;29650;47.378;8.300;2023-05-23T02:45:05;6.47;;;4.57;;
43986;SDS011;29650;47.378;8.300;2023-05-23T02:47:34;9.65;;;4.88;;
43986;SDS011;29650;47.378;8.300;2023-05-23T02:50:02;5.80;;;4.15;;
43986;SDS011;29650;47.378;8.300;2023-05-23T02:52:30;6.43;;;3.97;;
43986;SDS011;29650;47.378;8.300;2023-05-23T02:54:58;6.50;;;4.40;;
43986;SDS011;29650;47.378;8.300;2023-05-23T02:57:25;8.23;;;4.60;;
43986;SDS011;29650;47.378;8.300;2023-05-23T02:59:53;5.82;;;4.47;;
43986;SDS011;29650;47.378;8.300;2023-05-23T03:02:20;8.05;;;4.78;;
43986;SDS011;29650;47.378;8.300;2023-05-23T03:04:47;6.68;;;4.78;;
43986;SDS011;29650;47.378;8.300;2023-05-23T03:07:16;9.90;;;5.68;;
43986;SDS011;29650;47.378;8.300;2023-05-23T03:09:43;7.00;;;4.60;;
43986;SDS011;29650;47.378;8.300;2023-05-23T03:12:10;6.78;;;3.65;;
43986;SDS011;29650;47.378;8.300;2023-05-23T03:14:37;6.00;;;4.68;;
43986;SDS011;29650;47.378;8.300;2023-05-23T03:17:06;6.07;;;4.47;;
43986;SDS011;29650;47.378;8.300;2023-05-23T03:19:33;7.40;;;4.95;;
43986;SDS011;29650;47.378;8.300;2023-05-23T03:22:01;6.05;;;4.28;;
43986;SDS011;29650;47.378;8.300;2023-05-23T03:24:30;5.93;;;4.77;;
43986;SDS011;29650;47.378;8.300;2023-05-23T03:26:57;8.25;;;5.10;;
43986;SDS011;29650;47.378;8.300;2023-05-23T03:29:25;7.28;;;4.80;;
43986;SDS011;29650;47.378;8.300;2023-05-23T03:31:54;9.60;;;4.82;;
43986;SDS011;29650;47.378;8.300;2023-05-23T03:34:21;9.65;;;5.30;;
43986;SDS011;29650;47.378;8.300;2023-05-23T03:36:51;8.55;;;4.75;;
43986;SDS011;29650;47.378;8.300;2023-05-23T03:39:18;9.52;;;4.97;;
43986;SDS011;29650;47.378;8.300;2023-05-23T03:41:47;8.57;;;5.00;;
43986;SDS011;29650;47.378;8.300;2023-05-23T03:44:14;7.38;;;4.53;;
43986;SDS011;29650;47.378;8.300;2023-05-23T03:46:41;9.05;;;4.53;;
43986;SDS011;29650;47.378;8.300;2023-05-23T03:49:08;7.10;;;4.75;;
43986;SDS011;29650;47.378;8.300;2023-05-23T03:51:35;9.80;;;5.20;;
43986;SDS011;29650;47.378;8.300;2023-05-23T03:54:02;7.80;;;4.15;;
43986;SDS011;29650;47.378;8.300;2023-05-23T03:56:29;5.32;;;4.60;;
43986;SDS011;29650;47.378;8.300;2023-05-23T03:58:58;7.00;;;4.70;;
43986;SDS011;29650;47.378;8.300;2023-05-23T04:01:36;7.50;;;4.80;;
43986;SDS011;29650;47.378;8.300;2023-05-23T04:04:06;8.98;;;4.70;;
43986;SDS011;29650;47.378;8.300;2023-05-23T04:06:38;10.65;;;5.38;;
43986;SDS011;29650;47.378;8.300;2023-05-23T04:09:07;9.30;;;4.67;;
43986;SDS011;29650;47.378;8.300;2023-05-23T04:11:34;8.32;;;4.72;;
43986;SDS011;29650;47.378;8.300;2023-05-23T04:14:16;11.05;;;5.13;;
43986;SDS011;29650;47.378;8.300;2023-05-23T04:16:44;7.80;;;5.40;;
43986;SDS011;29650;47.378;8.300;2023-05-23T04:19:12;7.57;;;4.80;;
43986;SDS011;29650;47.378;8.300;2023-05-23T04:21:39;7.15;;;5.00;;
43986;SDS011;29650;47.378;8.300;2023-05-23T04:24:06;7.53;;;4.38;;
43986;SDS011;29650;47.378;8.300;2023-05-23T04:26:33;10.50;;;5.10;;
43986;SDS011;29650;47.378;8.300;2023-05-23T04:29:01;11.50;;;5.40;;
43986;SDS011;29650;47.378;8.300;2023-05-23T04:31:31;6.00;;;4.50;;
43986;SDS011;29650;47.378;8.300;2023-05-23T04:33:59;7.15;;;4.60;;
43986;SDS011;29650;47.378;8.300;2023-05-23T04:36:26;20.52;;;6.03;;
43986;SDS011;29650;47.378;8.300;2023-05-23T04:38:54;7.95;;;5.13;;
43986;SDS011;29650;47.378;8.300;2023-05-23T04:41:21;10.63;;;5.35;;
43986;SDS011;29650;47.378;8.300;2023-05-23T04:43:48;6.40;;;4.78;;
43986;SDS011;29650;47.378;8.300;2023-05-23T04:46:25;9.93;;;5.18;;
43986;SDS011;29650;47.378;8.300;2023-05-23T04:48:54;10.18;;;5.30;;
43986;SDS011;29650;47.378;8.300;2023-05-23T04:51:22;7.95;;;5.80;;
43986;SDS011;29650;47.378;8.300;2023-05-23T04:53:52;9.23;;;5.57;;
43986;SDS011;29650;47.378;8.300;2023-05-23T04:56:19;7.65;;;5.30;;
43986;SDS011;29650;47.378;8.300;2023-05-23T04:58:46;11.07;;;6.25;;
43986;SDS011;29650;47.378;8.300;2023-05-23T05:01:13;10.73;;;6.43;;
43986;SDS011;29650;47.378;8.300;2023-05-23T05:03:40;9.10;;;5.63;;
43986;SDS011;29650;47.378;8.300;2023-05-23T05:06:09;8.05;;;5.75;;
43986;SDS011;29650;47.378;8.300;2023-05-23T05:08:41;8.18;;;6.32;;
43986;SDS011;29650;47.378;8.300;2023-05-23T05:11:08;10.45;;;7.25;;
43986;SDS011;29650;47.378;8.300;2023-05-23T05:13:35;9.75;;;6.45;;
43986;SDS011;29650;47.378;8.300;2023-05-23T05:16:02;10.02;;;7.28;;
43986;SDS011;29650;47.378;8.300;2023-05-23T05:18:29;8.60;;;6.93;;
43986;SDS011;29650;47.378;8.300;2023-05-23T05:23:57;9.52;;;6.88;;
43986;SDS011;29650;47.378;8.300;2023-05-23T05:26:25;10.57;;;6.30;;
43986;SDS011;29650;47.378;8.300;2023-05-23T05:29:11;9.00;;;5.78;;
43986;SDS011;29650;47.378;8.300;2023-05-23T05:31:38;12.77;;;6.13;;
43986;SDS011;29650;47.378;8.300;2023-05-23T05:34:05;10.75;;;6.78;;
43986;SDS011;29650;47.378;8.300;2023-05-23T05:36:34;11.00;;;6.35;;
43986;SDS011;29650;47.378;8.300;2023-05-23T05:39:10;10.52;;;5.95;;
43986;SDS011;29650;47.378;8.300;2023-05-23T05:41:40;9.75;;;5.72;;
43986;SDS011;29650;47.378;8.300;2023-05-23T05:44:07;7.22;;;5.25;;
43986;SDS011;29650;47.378;8.300;2023-05-23T05:46:35;7.95;;;5.93;;
43986;SDS011;29650;47.378;8.300;2023-05-23T05:49:16;9.65;;;6.03;;
43986;SDS011;29650;47.378;8.300;2023-05-23T05:51:58;9.02;;;6.10;;
43986;SDS011;29650;47.378;8.300;2023-05-23T05:54:32;8.73;;;5.85;;
43986;SDS011;29650;47.378;8.300;2023-05-23T05:57:00;9.07;;;5.55;;
43986;SDS011;29650;47.378;8.300;2023-05-23T05:59:27;9.32;;;6.00;;
43986;SDS011;29650;47.378;8.300;2023-05-23T06:01:54;11.23;;;6.95;;
43986;SDS011;29650;47.378;8.300;2023-05-23T06:04:22;9.70;;;6.38;;
43986;SDS011;29650;47.378;8.300;2023-05-23T06:06:49;11.10;;;7.40;;
43986;SDS011;29650;47.378;8.300;2023-05-23T06:09:17;10.90;;;6.97;;
43986;SDS011;29650;47.378;8.300;2023-05-23T06:11:47;11.70;;;6.50;;
43986;SDS011;29650;47.378;8.300;2023-05-23T06:14:18;14.00;;;7.18;;
43986;SDS011;29650;47.378;8.300;2023-05-23T06:16:59;15.43;;;7.00;;
43986;SDS011;29650;47.378;8.300;2023-05-23T06:19:26;11.32;;;7.43;;
43986;SDS011;29650;47.378;8.300;2023-05-23T06:21:53;12.10;;;8.23;;
43986;SDS011;29650;47.378;8.300;2023-05-23T06:24:22;12.57;;;7.75;;
43986;SDS011;29650;47.378;8.300;2023-05-23T06:27:04;13.10;;;9.07;;
43986;SDS011;29650;47.378;8.300;2023-05-23T06:29:31;13.07;;;8.40;;
43986;SDS011;29650;47.378;8.300;2023-05-23T06:31:59;14.25;;;8.77;;
43986;SDS011;29650;47.378;8.300;2023-05-23T06:34:26;12.93;;;8.38;;
43986;SDS011;29650;47.378;8.300;2023-05-23T06:36:53;14.60;;;8.95;;
43986;SDS011;29650;47.378;8.300;2023-05-23T06:39:22;14.77;;;7.88;;
43986;SDS011;29650;47.378;8.300;2023-05-23T06:41:49;15.03;;;8.50;;
43986;SDS011;29650;47.378;8.300;2023-05-23T06:44:16;12.30;;;8.40;;
43986;SDS011;29650;47.378;8.300;2023-05-23T06:46:44;11.88;;;8.85;;
43986;SDS011;29650;47.378;8.300;2023-05-23T06:49:11;14.18;;;8.93;;
43986;SDS011;29650;47.378;8.300;2023-05-23T06:51:38;14.35;;;8.52;;
43986;SDS011;29650;47.378;8.300;2023-05-23T06:54:05;16.55;;;9.45;;
43986;SDS011;29650;47.378;8.300;2023-05-23T06:56:34;16.13;;;8.75;;
43986;SDS011;29650;47.378;8.300;2023-05-23T06:59:01;13.45;;;8.15;;
43986;SDS011;29650;47.378;8.300;2023-05-23T07:01:27;14.30;;;8.68;;
43986;SDS011;29650;47.378;8.300;2023-05-23T07:03:56;14.60;;;9.27;;
43986;SDS011;29650;47.378;8.300;2023-05-23T07:06:23;14.82;;;9.20;;
43986;SDS011;29650;47.378;8.300;2023-05-23T07:08:51;11.25;;;7.97;;
43986;SDS011;29650;47.378;8.300;2023-05-23T07:11:20;13.70;;;8.40;;
43986;SDS011;29650;47.378;8.300;2023-05-23T07:13:48;15.52;;;8.23;;
43986;SDS011;29650;47.378;8.300;2023-05-23T07:16:15;12.48;;;7.88;;
43986;SDS011;29650;47.378;8.300;2023-05-23T07:18:42;11.35;;;8.48;;
43986;SDS011;29650;47.378;8.300;2023-05-23T07:21:09;13.73;;;8.40;;
43986;SDS011;29650;47.378;8.300;2023-05-23T07:23:36;10.70;;;7.68;;
43986;SDS011;29650;47.378;8.300;2023-05-23T07:26:03;10.98;;;7.93;;
43986;SDS011;29650;47.378;8.300;2023-05-23T07:28:33;13.05;;;8.48;;
43986;SDS011;29650;47.378;8.300;2023-05-23T07:31:03;13.38;;;8.23;;
43986;SDS011;29650;47.378;8.300;2023-05-23T07:33:35;12.95;;;7.80;;
43986;SDS011;29650;47.378;8.300;2023-05-23T07:36:03;13.13;;;8.70;;
43986;SDS011;29650;47.378;8.300;2023-05-23T07:38:30;13.68;;;8.00;;
43986;SDS011;29650;47.378;8.300;2023-05-23T07:41:01;12.93;;;8.00;;
43986;SDS011;29650;47.378;8.300;2023-05-23T07:43:28;13.05;;;8.98;;
43986;SDS011;29650;47.378;8.300;2023-05-23T07:46:10;14.40;;;8.60;;
43986;SDS011;29650;47.378;8.300;2023-05-23T07:48:37;14.70;;;8.43;;
43986;SDS011;29650;47.378;8.300;2023-05-23T07:51:04;15.93;;;8.40;;
43986;SDS011;29650;47.378;8.300;2023-05-23T07:53:31;13.55;;;8.60;;
43986;SDS011;29650;47.378;8.300;2023-05-23T07:55:59;12.98;;;8.40;;
43986;SDS011;29650;47.378;8.300;2023-05-23T07:58:40;13.52;;;8.70;;
43986;SDS011;29650;47.378;8.300;2023-05-23T08:01:07;18.27;;;9.32;;
43986;SDS011;29650;47.378;8.300;2023-05-23T08:03:35;14.73;;;9.15;;
43986;SDS011;29650;47.378;8.300;2023-05-23T08:06:02;13.65;;;7.93;;
43986;SDS011;29650;47.378;8.300;2023-05-23T08:08:31;12.90;;;8.50;;
43986;SDS011;29650;47.378;8.300;2023-05-23T08:10:58;13.95;;;9.55;;
43986;SDS011;29650;47.378;8.300;2023-05-23T08:13:25;15.63;;;8.82;;
43986;SDS011;29650;47.378;8.300;2023-05-23T08:15:52;17.10;;;9.23;;
43986;SDS011;29650;47.378;8.300;2023-05-23T08:18:19;14.07;;;8.68;;
43986;SDS011;29650;47.378;8.300;2023-05-23T08:20:48;15.38;;;8.88;;
43986;SDS011;29650;47.378;8.300;2023-05-23T08:23:15;13.85;;;9.50;;
43986;SDS011;29650;47.378;8.300;2023-05-23T08:25:42;14.88;;;9.75;;
43986;SDS011;29650;47.378;8.300;2023-05-23T08:28:10;13.00;;;8.90;;
43986;SDS011;29650;47.378;8.300;2023-05-23T08:30:58;14.95;;;9.05;;
43986;SDS011;29650;47.378;8.300;2023-05-23T08:33:25;18.15;;;10.02;;
43986;SDS011;29650;47.378;8.300;2023-05-23T08:35:54;15.05;;;9.85;;
43986;SDS011;29650;47.378;8.300;2023-05-23T08:38:21;14.55;;;9.73;;
43986;SDS011;29650;47.378;8.300;2023-05-23T08:40:48;18.10;;;9.68;;
43986;SDS011;29650;47.378;8.300;2023-05-23T08:43:17;18.00;;;9.45;;
43986;SDS011;29650;47.378;8.300;2023-05-23T08:45:44;12.20;;;8.70;;
43986;SDS011;29650;47.378;8.300;2023-05-23T08:48:12;11.55;;;8.30;;
43986;SDS011;29650;47.378;8.300;2023-05-23T08:50:41;12.68;;;9.43;;
43986;SDS011;29650;47.378;8.300;2023-05-23T08:53:19;14.25;;;9.52;;
43986;SDS011;29650;47.378;8.300;2023-05-23T08:55:52;11.95;;;8.73;;
43986;SDS011;29650;47.378;8.300;2023-05-23T08:58:22;15.15;;;9.32;;
43986;SDS011;29650;47.378;8.300;2023-05-23T09:00:53;14.57;;;9.52;;
43986;SDS011;29650;47.378;8.300;2023-05-23T09:03:20;18.00;;;9.00;;
43986;SDS011;29650;47.378;8.300;2023-05-23T09:05:57;15.95;;;8.50;;
43986;SDS011;29650;47.378;8.300;2023-05-23T09:08:26;16.45;;;8.75;;
43986;SDS011;29650;47.378;8.300;2023-05-23T09:10:53;14.73;;;9.30;;
43986;SDS011;29650;47.378;8.300;2023-05-23T09:13:27;13.88;;;9.50;;
43986;SDS011;29650;47.378;8.300;2023-05-23T09:15:55;13.73;;;8.60;;
43986;SDS011;29650;47.378;8.300;2023-05-23T09:18:31;13.60;;;8.52;;
43986;SDS011;29650;47.378;8.300;2023-05-23T09:21:00;16.23;;;9.25;;
43986;SDS011;29650;47.378;8.300;2023-05-23T09:26:00;14.77;;;9.87;;
43986;SDS011;29650;47.378;8.300;2023-05-23T09:28:36;16.63;;;9.68;;
43986;SDS011;29650;47.378;8.300;2023-05-23T09:31:05;13.68;;;9.25;;
43986;SDS011;29650;47.378;8.300;2023-05-23T09:33:35;12.40;;;9.18;;
43986;SDS011;29650;47.378;8.300;2023-05-23T09:36:05;18.27;;;9.52;;
43986;SDS011;29650;47.378;8.300;2023-05-23T09:38:35;10.95;;;8.35;;
43986;SDS011;29650;47.378;8.300;2023-05-23T09:41:03;19.77;;;9.82;;
43986;SDS011;29650;47.378;8.300;2023-05-23T09:43:36;15.63;;;9.60;;
43986;SDS011;29650;47.378;8.300;2023-05-23T09:46:06;19.55;;;9.85;;
43986;SDS011;29650;47.378;8.300;2023-05-23T09:48:33;13.50;;;8.63;;
43986;SDS011;29650;47.378;8.300;2023-05-23T09:51:02;14.88;;;8.45;;
43986;SDS011;29650;47.378;8.300;2023-05-23T09:53:30;16.15;;;9.23;;
43986;SDS011;29650;47.378;8.300;2023-05-23T09:55:58;17.38;;;9.68;;
43986;SDS011;29650;47.378;8.300;2023-05-23T09:58:27;27.13;;;10.40;;
43986;SDS011;29650;47.378;8.300;2023-05-23T10:00:57;14.07;;;9.40;;
43986;SDS011;29650;47.378;8.300;2023-05-23T10:03:30;19.92;;;9.63;;
43986;SDS011;29650;47.378;8.300;2023-05-23T10:06:00;13.18;;;8.95;;
43986;SDS011;29650;47.378;8.300;2023-05-23T10:08:35;17.60;;;9.20;;
43986;SDS011;29650;47.378;8.300;2023-05-23T10:14:14;11.52;;;8.48;;
43986;SDS011;29650;47.378;8.300;2023-05-23T10:19:16;14.50;;;9.18;;
43986;SDS011;29650;47.378;8.300;2023-05-23T10:21:49;15.07;;;9.02;;
43986;SDS011;29650;47.378;8.300;2023-05-23T10:24:23;17.08;;;9.35;;
43986;SDS011;29650;47.378;8.300;2023-05-23T10:26:50;14.63;;;9.23;;
43986;SDS011;29650;47.378;8.300;2023-05-23T10:29:20;13.63;;;9.00;;
43986;SDS011;29650;47.378;8.300;2023-05-23T10:31:47;18.05;;;10.15;;
43986;SDS011;29650;47.378;8.300;2023-05-23T10:34:17;14.55;;;8.75;;
43986;SDS011;29650;47.378;8.300;2023-05-23T10:36:54;17.00;;;9.23;;
43986;SDS011;29650;47.378;8.300;2023-05-23T10:39:29;11.32;;;7.97;;
43986;SDS011;29650;47.378;8.300;2023-05-23T10:42:07;12.55;;;9.13;;
43986;SDS011;29650;47.378;8.300;2023-05-23T10:44:38;13.43;;;8.70;;
43986;SDS011;29650;47.378;8.300;2023-05-23T10:47:05;14.90;;;9.35;;
43986;SDS011;29650;47.378;8.300;2023-05-23T10:49:42;12.40;;;8.90;;
43986;SDS011;29650;47.378;8.300;2023-05-23T10:52:10;19.90;;;10.10;;
43986;SDS011;29650;47.378;8.300;2023-05-23T10:54:42;26.88;;;10.70;;
43986;SDS011;29650;47.378;8.300;2023-05-23T10:57:14;19.15;;;10.70;;
43986;SDS011;29650;47.378;8.300;2023-05-23T10:59:43;16.70;;;10.43;;
43986;SDS011;29650;47.378;8.300;2023-05-23T11:02:11;20.52;;;10.50;;
43986;SDS011;29650;47.378;8.300;2023-05-23T11:04:40;20.80;;;10.05;;
43986;SDS011;29650;47.378;8.300;2023-05-23T11:10:03;18.85;;;11.02;;
43986;SDS011;29650;47.378;8.300;2023-05-23T11:12:35;18.15;;;10.93;;
43986;SDS011;29650;47.378;8.300;2023-05-23T11:15:08;14.60;;;10.52;;
43986;SDS011;29650;47.378;8.300;2023-05-23T11:17:49;17.13;;;10.20;;
43986;SDS011;29650;47.378;8.300;2023-05-23T11:20:18;20.58;;;10.45;;
43986;SDS011;29650;47.378;8.300;2023-05-23T11:22:53;13.43;;;10.23;;
43986;SDS011;29650;47.378;8.300;2023-05-23T11:25:38;18.75;;;10.50;;
43986;SDS011;29650;47.378;8.300;2023-05-23T11:28:07;20.67;;;11.20;;
43986;SDS011;29650;47.378;8.300;2023-05-23T11:30:35;18.63;;;10.73;;
43986;SDS011;29650;47.378;8.300;2023-05-23T11:33:06;14.57;;;9.63;;
43986;SDS011;29650;47.378;8.300;2023-05-23T11:35:35;15.27;;;10.10;;
43986;SDS011;29650;47.378;8.300;2023-05-23T11:38:03;17.60;;;10.60;;
43986;SDS011;29650;47.378;8.300;2023-05-23T11:40:31;16.80;;;10.68;;
43986;SDS011;29650;47.378;8.300;2023-05-23T11:43:00;16.42;;;11.15;;
43986;SDS011;29650;47.378;8.300;2023-05-23T11:45:30;16.50;;;10.75;;
43986;SDS011;29650;47.378;8.300;2023-05-23T11:48:03;18.25;;;12.30;;
43986;SDS011;29650;47.378;8.300;2023-05-23T11:50:31;18.38;;;11.95;;
43986;SDS011;29650;47.378;8.300;2023-05-23T11:52:58;17.63;;;11.00;;
43986;SDS011;29650;47.378;8.300;2023-05-23T11:55:25;18.95;;;12.35;;
43986;SDS011;29650;47.378;8.300;2023-05-23T11:57:54;17.88;;;10.85;;
43986;SDS011;29650;47.378;8.300;2023-05-23T12:00:24;19.50;;;12.45;;
43986;SDS011;29650;47.378;8.300;2023-05-23T12:02:51;19.02;;;11.80;;
43986;SDS011;29650;47.378;8.300;2023-05-23T12:05:20;18.65;;;12.18;;
43986;SDS011;29650;47.378;8.300;2023-05-23T12:07:47;21.77;;;11.63;;
43986;SDS011;29650;47.378;8.300;2023-05-23T12:10:15;15.43;;;9.52;;
43986;SDS011;29650;47.378;8.300;2023-05-23T12:12:44;19.13;;;11.05;;
43986;SDS011;29650;47.378;8.300;2023-05-23T12:15:11;17.38;;;11.30;;
43986;SDS011;29650;47.378;8.300;2023-05-23T12:17:39;17.88;;;10.75;;
43986;SDS011;29650;47.378;8.300;2023-05-23T12:20:10;17.35;;;10.05;;
43986;SDS011;29650;47.378;8.300;2023-05-23T12:22:39;16.92;;;10.65;;
43986;SDS011;29650;47.378;8.300;2023-05-23T12:25:07;16.63;;;10.73;;
43986;SDS011;29650;47.378;8.300;2023-05-23T12:27:35;19.52;;;10.55;;
43986;SDS011;29650;47.378;8.300;2023-05-23T12:30:06;17.63;;;10.50;;
43986;SDS011;29650;47.378;8.300;2023-05-23T12:32:34;12.90;;;9.73;;
43986;SDS011;29650;47.378;8.300;2023-05-23T12:35:04;15.73;;;9.80;;
43986;SDS011;29650;47.378;8.300;2023-05-23T12:37:32;15.82;;;9.38;;
43986;SDS011;29650;47.378;8.300;2023-05-23T12:40:09;8.52;;;6.53;;
43986;SDS011;29650;47.378;8.300;2023-05-23T12:42:48;10.45;;;5.75;;
43986;SDS011;29650;47.378;8.300;2023-05-23T12:45:17;7.45;;;5.35;;
43986;SDS011;29650;47.378;8.300;2023-05-23T12:47:44;8.90;;;6.07;;
43986;SDS011;29650;47.378;8.300;2023-05-23T12:50:11;9.10;;;5.90;;
43986;SDS011;29650;47.378;8.300;2023-05-23T12:52:38;9.18;;;6.05;;
43986;SDS011;29650;47.378;8.300;2023-05-23T12:55:16;13.50;;;7.05;;
43986;SDS011;29650;47.378;8.300;2023-05-23T12:57:50;11.10;;;7.15;;
43986;SDS011;29650;47.378;8.300;2023-05-23T13:01:03;13.05;;;8.45;;
43986;SDS011;29650;47.378;8.300;2023-05-23T13:03:34;10.82;;;7.72;;
43986;SDS011;29650;47.378;8.300;2023-05-23T13:06:11;12.07;;;8.10;;
43986;SDS011;29650;47.378;8.300;2023-05-23T13:08:38;12.80;;;8.20;;
43986;SDS011;29650;47.378;8.300;2023-05-23T13:11:07;16.08;;;9.15;;
43986;SDS011;29650;47.378;8.300;2023-05-23T13:13:34;12.73;;;8.50;;
43986;SDS011;29650;47.378;8.300;2023-05-23T13:16:01;16.15;;;9.95;;
43986;SDS011;29650;47.378;8.300;2023-05-23T13:18:28;14.95;;;9.35;;
43986;SDS011;29650;47.378;8.300;2023-05-23T13:20:55;15.27;;;10.05;;
43986;SDS011;29650;47.378;8.300;2023-05-23T13:23:37;19.08;;;10.30;;
43986;SDS011;29650;47.378;8.300;2023-05-23T13:26:04;15.50;;;10.75;;
43986;SDS011;29650;47.378;8.300;2023-05-23T13:28:33;16.33;;;10.80;;
43986;SDS011;29650;47.378;8.300;2023-05-23T13:31:01;17.17;;;10.90;;
43986;SDS011;29650;47.378;8.300;2023-05-23T13:33:28;17.27;;;10.52;;
43986;SDS011;29650;47.378;8.300;2023-05-23T13:35:55;19.17;;;11.75;;
43986;SDS011;29650;47.378;8.300;2023-05-23T13:38:22;18.20;;;11.30;;
43986;SDS011;29650;47.378;8.300;2023-05-23T13:40:51;22.75;;;11.20;;
43986;SDS011;29650;47.378;8.300;2023-05-23T13:43:21;20.65;;;11.60;;
43986;SDS011;29650;47.378;8.300;2023-05-23T13:45:48;16.73;;;11.90;;
43986;SDS011;29650;47.378;8.300;2023-05-23T13:48:15;19.58;;;11.38;;
43986;SDS011;29650;47.378;8.300;2023-05-23T13:50:42;27.38;;;12.18;;
43986;SDS011;29650;47.378;8.300;2023-05-23T13:53:09;21.73;;;11.88;;
43986;SDS011;29650;47.378;8.300;2023-05-23T13:55:40;18.45;;;11.68;;
43986;SDS011;29650;47.378;8.300;2023-05-23T13:58:07;21.52;;;12.25;;
43986;SDS011;29650;47.378;8.300;2023-05-23T14:00:36;16.98;;;10.45;;
43986;SDS011;29650;47.378;8.300;2023-05-23T14:03:03;15.90;;;10.50;;
43986;SDS011;29650;47.378;8.300;2023-05-23T14:05:30;14.75;;;9.95;;
43986;SDS011;29650;47.378;8.300;2023-05-23T14:08:18;16.17;;;9.82;;
43986;SDS011;29650;47.378;8.300;2023-05-23T14:10:45;17.30;;;9.95;;
43986;SDS011;29650;47.378;8.300;2023-05-23T14:13:12;13.75;;;8.93;;
43986;SDS011;29650;47.378;8.300;2023-05-23T14:15:40;16.80;;;10.82;;
43986;SDS011;29650;47.378;8.300;2023-05-23T14:18:07;16.83;;;9.65;;
43986;SDS011;29650;47.378;8.300;2023-05-23T14:20:34;15.95;;;10.40;;
43986;SDS011;29650;47.378;8.300;2023-05-23T14:23:01;14.50;;;9.75;;
43986;SDS011;29650;47.378;8.300;2023-05-23T14:25:28;15.70;;;10.40;;
43986;SDS011;29650;47.378;8.300;2023-05-23T14:27:55;16.85;;;11.23;;
43986;SDS011;29650;47.378;8.300;2023-05-23T14:30:22;19.20;;;11.07;;
43986;SDS011;29650;47.378;8.300;2023-05-23T14:32:50;15.18;;;9.90;;
43986;SDS011;29650;47.378;8.300;2023-05-23T14:35:18;15.45;;;10.68;;
43986;SDS011;29650;47.378;8.300;2023-05-23T14:37:46;19.70;;;11.75;;
43986;SDS011;29650;47.378;8.300;2023-05-23T14:40:13;15.07;;;10.90;;
43986;SDS011;29650;47.378;8.300;2023-05-23T14:42:41;19.45;;;12.15;;
43986;SDS011;29650;47.378;8.300;2023-05-23T14:45:08;18.05;;;12.68;;
43986;SDS011;29650;47.378;8.300;2023-05-23T14:47:36;19.05;;;11.93;;
43986;SDS011;29650;47.378;8.300;2023-05-23T14:50:06;17.08;;;11.40;;
43986;SDS011;29650;47.378;8.300;2023-05-23T14:52:34;16.63;;;10.68;;
43986;SDS011;29650;47.378;8.300;2023-05-23T14:55:01;18.10;;;11.43;;
43986;SDS011;29650;47.378;8.300;2023-05-23T14:57:28;18.05;;;11.18;;
43986;SDS011;29650;47.378;8.300;2023-05-23T14:59:55;19.90;;;10.80;;
43986;SDS011;29650;47.378;8.300;2023-05-23T15:02:22;17.48;;;11.48;;
43986;SDS011;29650;47.378;8.300;2023-05-23T15:04:48;17.85;;;11.35;;
43986;SDS011;29650;47.378;8.300;2023-05-23T15:07:17;16.65;;;11.65;;